Delavan, Illinois
Current Conditions -  °F | °C
As of 2:35 PM on Saturday 20 Dec 2014 (Local Time) from KAAA Reporting Station
Overcast Overcast  
Wind Chill: 32°   Ceiling: 3900
Heat Index: 37°   Visibility: 10mi
Dew Point: 29°   Wind: 6mph
Humidity: 75%   Direction: 160°SSE
Pressure: 30.24"   Gusts: NA
Location:  40.37°N, 89.55°W
Report Text: KAAA 202035Z AUTO 16005KT 10SM OVC039 03/M01 A3024 RMK AO2 T00261015
Loading
Personal Weather Stations






























Interactive Weather Map New forecast layout! Learn more

10-Day Weather Forecast

Advertisements
Track Severe Weather on mobile